Current Weather

Niamtougou International

Niamtougou International, Togo (DXNG)

Report from: Monday, February 6, 2023 3:00 AM GMT
Current time: Monday, February 6, 2023 6:14 AM GMT

Nearby weather
Weather history
Weather forecast

Temperature25.0°C (77.0°F)
Dew point2.0°C (35.6°F)
Winds 6 kts (3.1 m/s, 6.9 mph) East (100°)
Clouds Sky clear
Altimeter29.85 in.Hg (1011 mB)
Relative humidity22 %
Density altitude1,343 ft. (409 m)
Remarks Ceiling and visibility OK
Flight conditions Visual Meteorological Conditions
Raw dataDXNG 060300Z 10006KT CAVOK 25/02 Q1011
An error has occurred. This application may no longer respond until reloaded. Reload 🗙